sensor_id;sensor_type;location;lat;lon;timestamp;temperature;humidity
57444;DHT22;43289;52.962;6.196;2023-05-07T07:41:24;16.30;99.90
57444;DHT22;43289;52.962;6.196;2023-05-07T07:43:49;15.00;99.90
57444;DHT22;43289;52.962;6.196;2023-05-07T07:46:15;14.90;99.90
57444;DHT22;43289;52.962;6.196;2023-05-07T07:48:40;14.90;99.90
57444;DHT22;43289;52.962;6.196;2023-05-07T07:51:06;14.90;99.90
57444;DHT22;43289;52.962;6.196;2023-05-07T07:53:32;14.90;99.90
57444;DHT22;43289;52.962;6.196;2023-05-07T07:55:57;15.00;99.90
57444;DHT22;43289;52.962;6.196;2023-05-07T07:58:23;15.00;99.90
57444;DHT22;43289;52.962;6.196;2023-05-07T08:00:50;14.90;99.90
57444;DHT22;43289;52.962;6.196;2023-05-07T08:03:16;15.00;99.90
57444;DHT22;43289;52.962;6.196;2023-05-07T08:05:42;15.10;99.90
57444;DHT22;43289;52.962;6.196;2023-05-07T08:08:08;15.20;99.90
57444;DHT22;43289;52.962;6.196;2023-05-07T08:10:34;15.30;99.90
57444;DHT22;43289;52.962;6.196;2023-05-07T08:13:00;15.40;99.90
57444;DHT22;43289;52.962;6.196;2023-05-07T08:15:29;15.40;99.90
57444;DHT22;43289;52.962;6.196;2023-05-07T08:17:55;15.50;99.90
57444;DHT22;43289;52.962;6.196;2023-05-07T08:20:23;15.60;99.90
57444;DHT22;43289;52.962;6.196;2023-05-07T08:22:48;15.70;99.90
57444;DHT22;43289;52.962;6.196;2023-05-07T08:25:14;15.70;99.90
57444;DHT22;43289;52.962;6.196;2023-05-07T08:27:39;15.80;99.90
57444;DHT22;43289;52.962;6.196;2023-05-07T08:30:05;15.90;99.90
57444;DHT22;43289;52.962;6.196;2023-05-07T08:32:31;16.00;99.90
57444;DHT22;43289;52.962;6.196;2023-05-07T08:34:57;16.00;99.90
57444;DHT22;43289;52.962;6.196;2023-05-07T08:37:22;16.00;99.90
57444;DHT22;43289;52.962;6.196;2023-05-07T08:39:48;16.20;99.90
57444;DHT22;43289;52.962;6.196;2023-05-07T08:42:15;16.20;99.90
57444;DHT22;43289;52.962;6.196;2023-05-07T08:44:44;16.40;99.90
57444;DHT22;43289;52.962;6.196;2023-05-07T08:47:12;16.40;99.90
57444;DHT22;43289;52.962;6.196;2023-05-07T08:49:38;16.50;99.90
57444;DHT22;43289;52.962;6.196;2023-05-07T08:52:04;16.60;99.90
57444;DHT22;43289;52.962;6.196;2023-05-07T08:54:31;16.60;99.90
57444;DHT22;43289;52.962;6.196;2023-05-07T08:56:57;16.60;99.90
57444;DHT22;43289;52.962;6.196;2023-05-07T08:59:24;16.60;99.90
57444;DHT22;43289;52.962;6.196;2023-05-07T09:01:49;16.70;99.90
57444;DHT22;43289;52.962;6.196;2023-05-07T09:04:15;16.70;99.90
57444;DHT22;43289;52.962;6.196;2023-05-07T09:06:42;16.70;99.90
57444;DHT22;43289;52.962;6.196;2023-05-07T09:09:07;16.70;99.90
57444;DHT22;43289;52.962;6.196;2023-05-07T09:11:33;16.90;99.90
57444;DHT22;43289;52.962;6.196;2023-05-07T09:13:59;17.00;99.90
57444;DHT22;43289;52.962;6.196;2023-05-07T09:16:30;17.10;99.90
57444;DHT22;43289;52.962;6.196;2023-05-07T09:18:58;17.40;99.90
57444;DHT22;43289;52.962;6.196;2023-05-07T09:21:23;17.70;99.90
57444;DHT22;43289;52.962;6.196;2023-05-07T09:23:53;17.90;99.90
57444;DHT22;43289;52.962;6.196;2023-05-07T09:26:21;18.00;99.90
57444;DHT22;43289;52.962;6.196;2023-05-07T09:28:47;18.10;99.90
57444;DHT22;43289;52.962;6.196;2023-05-07T09:31:13;18.30;99.90
57444;DHT22;43289;52.962;6.196;2023-05-07T09:33:39;18.30;99.90
57444;DHT22;43289;52.962;6.196;2023-05-07T09:36:07;18.30;99.90
57444;DHT22;43289;52.962;6.196;2023-05-07T09:38:34;18.60;99.90
57444;DHT22;43289;52.962;6.196;2023-05-07T09:41:10;18.70;99.90
57444;DHT22;43289;52.962;6.196;2023-05-07T09:43:37;18.60;99.90
57444;DHT22;43289;52.962;6.196;2023-05-07T09:46:14;18.60;99.90
57444;DHT22;43289;52.962;6.196;2023-05-07T09:48:43;18.80;99.90
57444;DHT22;43289;52.962;6.196;2023-05-07T09:51:30;18.90;99.90
57444;DHT22;43289;52.962;6.196;2023-05-07T09:54:00;19.10;99.90
57444;DHT22;43289;52.962;6.196;2023-05-07T09:56:30;19.20;99.90
57444;DHT22;43289;52.962;6.196;2023-05-07T10:18:31;19.30;99.90
57444;DHT22;43289;52.962;6.196;2023-05-07T10:21:04;19.50;99.90
57444;DHT22;43289;52.962;6.196;2023-05-07T10:23:32;19.50;99.90
57444;DHT22;43289;52.962;6.196;2023-05-07T10:26:01;19.50;99.90
57444;DHT22;43289;52.962;6.196;2023-05-07T10:28:29;19.40;99.90
57444;DHT22;43289;52.962;6.196;2023-05-07T16:27:59;19.30;99.90
57444;DHT22;43289;52.962;6.196;2023-05-07T16:32:51;26.70;99.90
57444;DHT22;43289;52.962;6.196;2023-05-07T16:35:17;24.80;99.90
57444;DHT22;43289;52.962;6.196;2023-05-07T16:37:42;24.00;99.90
57444;DHT22;43289;52.962;6.196;2023-05-07T17:07:06;23.30;99.90
57444;DHT22;43289;52.962;6.196;2023-05-07T17:14:24;21.50;99.90
57444;DHT22;43289;52.962;6.196;2023-05-07T17:16:50;21.00;99.90
57444;DHT22;43289;52.962;6.196;2023-05-07T17:19:16;20.80;99.90
57444;DHT22;43289;52.962;6.196;2023-05-07T17:21:43;21.00;99.90
57444;DHT22;43289;52.962;6.196;2023-05-07T17:24:08;20.80;99.90
57444;DHT22;43289;52.962;6.196;2023-05-07T17:26:34;21.00;99.90
57444;DHT22;43289;52.962;6.196;2023-05-07T17:29:02;20.90;99.90
57444;DHT22;43289;52.962;6.196;2023-05-07T18:52:00;20.80;99.90
57444;DHT22;43289;52.962;6.196;2023-05-07T19:45:45;17.10;99.90
57444;DHT22;43289;52.962;6.196;2023-05-07T19:50:38;15.50;99.90
57444;DHT22;43289;52.962;6.196;2023-05-07T19:53:04;15.30;99.90
57444;DHT22;43289;52.962;6.196;2023-05-07T19:55:30;15.30;99.90
57444;DHT22;43289;52.962;6.196;2023-05-07T20:39:24;15.20;99.90
57444;DHT22;43289;52.962;6.196;2023-05-07T20:41:53;14.40;99.90
57444;DHT22;43289;52.962;6.196;2023-05-07T20:49:12;14.30;99.90
57444;DHT22;43289;52.962;6.196;2023-05-07T20:51:38;14.10;99.90
57444;DHT22;43289;52.962;6.196;2023-05-07T20:54:03;14.10;99.90
57444;DHT22;43289;52.962;6.196;2023-05-07T20:56:29;14.00;99.90
57444;DHT22;43289;52.962;6.196;2023-05-07T20:58:55;14.00;99.90
57444;DHT22;43289;52.962;6.196;2023-05-07T21:01:20;14.00;99.90
57444;DHT22;43289;52.962;6.196;2023-05-07T21:03:46;13.90;99.90
57444;DHT22;43289;52.962;6.196;2023-05-07T23:03:14;13.90;99.90
57444;DHT22;43289;52.962;6.196;2023-05-07T23:08:05;13.00;99.90
57444;DHT22;43289;52.962;6.196;2023-05-07T23:10:31;12.90;99.90
57444;DHT22;43289;52.962;6.196;2023-05-07T23:12:59;12.90;99.90
57444;DHT22;43289;52.962;6.196;2023-05-07T23:15:25;12.80;99.90
57444;DHT22;43289;52.962;6.196;2023-05-07T23:17:50;12.80;99.90
57444;DHT22;43289;52.962;6.196;2023-05-07T23:20:16;12.70;99.90
57444;DHT22;43289;52.962;6.196;2023-05-07T23:22:43;12.70;99.90
57444;DHT22;43289;52.962;6.196;2023-05-07T23:25:08;12.60;99.90
57444;DHT22;43289;52.962;6.196;2023-05-07T23:27:35;12.60;99.90
57444;DHT22;43289;52.962;6.196;2023-05-07T23:30:01;12.60;99.90
57444;DHT22;43289;52.962;6.196;2023-05-07T23:32:27;12.60;99.90
57444;DHT22;43289;52.962;6.196;2023-05-07T23:34:52;12.50;99.90
57444;DHT22;43289;52.962;6.196;2023-05-07T23:37:20;12.50;99.90
57444;DHT22;43289;52.962;6.196;2023-05-07T23:39:46;12.50;99.90
57444;DHT22;43289;52.962;6.196;2023-05-07T23:42:11;12.40;99.90
57444;DHT22;43289;52.962;6.196;2023-05-07T23:44:38;12.40;99.90
57444;DHT22;43289;52.962;6.196;2023-05-07T23:47:03;12.30;99.90
57444;DHT22;43289;52.962;6.196;2023-05-07T23:49:33;12.30;99.90
57444;DHT22;43289;52.962;6.196;2023-05-07T23:51:58;12.30;99.90
57444;DHT22;43289;52.962;6.196;2023-05-07T23:54:24;12.30;99.90
57444;DHT22;43289;52.962;6.196;2023-05-07T23:56:49;12.30;99.90
57444;DHT22;43289;52.962;6.196;2023-05-07T23:59:15;12.20;99.90
